| time (UTC) | temp F | wind direction | speed knots | gust knots | rain 1hr in | rain 24hr in | rain mn in | humidity % | barometer mb |
| 20260906224532 | 75 | 89 | 5.2 | 7.8 | 0.00 | 0.00 | 0.00 | 42 | 1015.8 |
| 20260906223012 | 76 | 91 | 6.1 | 10.4 | 0.00 | 0.00 | 0.00 | 39 | 1016.0 |
| 20260906221519 | 76 | 113 | 4.3 | 9.6 | 0.00 | 0.00 | 0.00 | 40 | 1016.0 |
| 20260906220036 | 76 | 47 | 3.5 | 8.7 | 0.00 | 0.00 | 0.00 | 39 | 1016.2 |
| 20260906214530 | 76 | 165 | 5.2 | 8.7 | 0.00 | 0.00 | 0.00 | 40 | 1016.5 |
| 20260906213031 | 76 | 149 | 7.0 | 10.4 | 0.00 | 0.00 | 0.00 | 40 | 1016.4 |
| 20260906211514 | 75 | 75 | 5.2 | 8.7 | 0.00 | 0.00 | 0.00 | 42 | 1016.6 |
| 20260906210004 | 74 | 69 | 3.5 | 7.0 | 0.00 | 0.00 | 0.00 | 41 | 1016.7 |
| 20260906204503 | 75 | 88 | 3.5 | 7.8 | 0.00 | 0.00 | 0.00 | 42 | 1016.8 |
| 20260906203007 | 73 | 218 | 3.5 | 8.7 | 0.00 | 0.00 | 0.00 | 44 | 1017.1 |
| 20260906201512 | 74 | 154 | 4.3 | 8.7 | 0.00 | 0.00 | 0.00 | 43 | 1017.2 |
| 20260906200003 | 73 | 122 | 5.2 | 8.7 | 0.00 | 0.00 | 0.00 | 43 | 1017.4 |
| 20260906194504 | 73 | 85 | 2.6 | 7.8 | 0.00 | 0.00 | 0.00 | 48 | 1017.7 |
| 20260906193007 | 72 | 72 | 4.3 | 9.6 | 0.00 | 0.00 | 0.00 | 51 | 1018.0 |
| 20260906191510 | 72 | 122 | 5.2 | 9.6 | 0.00 | 0.00 | 0.00 | 46 | 1018.3 |
| 20260906190016 | 71 | 36 | 5.2 | 8.7 | 0.00 | 0.00 | 0.00 | 53 | 1018.5 |
| 20260906184512 | 69 | 187 | 1.7 | 7.0 | 0.00 | 0.00 | 0.00 | 50 | 1018.7 |
| 20260906183006 | 70 | 103 | 4.3 | 10.4 | 0.00 | 0.00 | 0.00 | 49 | 1019.1 |
| 20260906181507 | 68 | 18 | 2.6 | 9.6 | 0.00 | 0.00 | 0.00 | 58 | 1019.2 |
| 20260906180013 | 69 | 39 | 6.1 | 8.7 | 0.00 | 0.00 | 0.00 | 58 | 1019.4 |
| 20260906174520 | 69 | 58 | 3.5 | 9.6 | 0.00 | 0.00 | 0.00 | 57 | 1019.7 |
| 20260906173005 | 66 | 62 | 2.6 | 7.8 | 0.00 | 0.00 | 0.00 | 60 | 1019.8 |
| 20260906171507 | 67 | 41 | 1.7 | 6.1 | 0.00 | 0.00 | 0.00 | 55 | 1019.9 |
| 20260906170014 | 67 | 91 | 3.5 | 6.1 | 0.00 | 0.00 | 0.00 | 56 | 1019.9 |
| 20260906164517 | 66 | 100 | 4.3 | 7.0 | 0.00 | 0.00 | 0.00 | 57 | 1019.9 |
| 20260906163003 | 65 | 55 | 1.7 | 5.2 | 0.00 | 0.00 | 0.00 | 58 | 1019.9 |
| 20260906161506 | 65 | 131 | 2.6 | 6.1 | 0.00 | 0.00 | 0.00 | 60 | 1019.9 |
| 20260906160013 | 64 | 98 | 4.3 | 7.0 | 0.00 | 0.00 | 0.00 | 61 | 1019.8 |
| 20260906154535 | 63 | 173 | 3.5 | 7.0 | 0.00 | 0.00 | 0.00 | 63 | 1019.8 |
| 20260906153028 | 63 | 164 | 5.2 | 7.8 | 0.00 | 0.00 | 0.00 | 65 | 1019.8 |
| 20260906151504 | 63 | 164 | 4.3 | 7.0 | 0.00 | 0.00 | 0.00 | 63 | 1019.9 |
| 20260906150013 | 62 | 122 | 4.3 | 6.1 | 0.00 | 0.00 | 0.00 | 64 | 1020.0 |
| 20260906144517 | 61 | 122 | 4.3 | 5.2 | 0.00 | 0.00 | 0.00 | 66 | 1020.0 |
| 20260906143020 | 61 | 176 | 2.6 | 5.2 | 0.00 | 0.00 | 0.00 | 61 | 1020.1 |
| 20260906141527 | 59 | 205 | 2.6 | 3.5 | 0.00 | 0.00 | 0.00 | 60 | 1020.1 |
| 20260906140027 | 57 | 219 | 3.5 | 6.1 | 0.00 | 0.00 | 0.00 | 62 | 1020.1 |
| 20260906134512 | 55 | 214 | 2.6 | 4.3 | 0.00 | 0.00 | 0.00 | 68 | 1020.0 |
| 20260906133018 | 54 | 235 | 2.6 | 5.2 | 0.00 | 0.00 | 0.00 | 72 | 1020.0 |
| 20260906131533 | 54 | 229 | 4.3 | 6.1 | 0.00 | 0.00 | 0.00 | 67 | 1020.1 |
| 20260906130018 | 54 | 252 | 2.6 | 7.8 | 0.00 | 0.00 | 0.00 | 66 | 1020.1 |
| 20260906124513 | 54 | 238 | 4.3 | 8.7 | 0.00 | 0.00 | 0.00 | 64 | 1020.2 |
| 20260906123018 | 54 | 242 | 4.3 | 7.8 | 0.00 | 0.00 | 0.00 | 65 | 1020.2 |
| 20260906121525 | 55 | 239 | 4.3 | 8.7 | 0.00 | 0.00 | 0.00 | 65 | 1020.2 |
| 20260906120030 | 53 | 214 | 5.2 | 7.0 | 0.00 | 0.00 | 0.00 | 69 | 1020.3 |
| 20260906114514 | 53 | 197 | 3.5 | 4.3 | 0.00 | 0.00 | 0.00 | 69 | 1020.3 |
| 20260906113016 | 54 | 238 | 3.5 | 7.8 | 0.00 | 0.00 | 0.00 | 66 | 1020.4 |
| 20260906111521 | 55 | 236 | 5.2 | 7.0 | 0.00 | 0.00 | 0.00 | 65 | 1020.5 |
| 20260906110027 | 55 | 240 | 3.5 | 4.3 | 0.00 | 0.00 | 0.00 | 70 | 1020.5 |
| 20260906104535 | 53 | 229 | 3.5 | 4.3 | 0.00 | 0.00 | 0.00 | 71 | 1020.5 |
| 20260906103014 | 54 | 251 | 1.7 | 3.5 | 0.00 | 0.00 | 0.00 | 71 | 1020.5 |
| 20260906101518 | 55 | 264 | 1.7 | 7.0 | 0.00 | 0.00 | 0.00 | 67 | 1020.6 |
| 20260906100032 | 54 | 238 | 2.6 | 3.5 | 0.00 | 0.00 | 0.00 | 73 | 1020.5 |
| 20260906094530 | 54 | 204 | 1.7 | 2.6 | 0.00 | 0.00 | 0.00 | 72 | 1020.5 |
| 20260906093045 | 54 | 290 | 1.7 | 2.6 | 0.00 | 0.00 | 0.00 | 74 | 1020.5 |
| 20260906091513 | 55 | 237 | 0.0 | 0.0 | 0.00 | 0.00 | 0.00 | 71 | 1020.7 |
| 20260906090023 | 56 | 291 | 0.0 | 2.6 | 0.00 | 0.00 | 0.00 | 71 | 1020.7 |
| 20260906084534 | 57 | 265 | 1.7 | 2.6 | 0.00 | 0.00 | 0.00 | 69 | 1020.7 |
| 20260906083039 | 57 | 287 | 0.0 | 2.6 | 0.00 | 0.00 | 0.00 | 68 | 1020.9 |
| 20260906081517 | 57 | 315 | 0.0 | 2.6 | 0.00 | 0.00 | 0.00 | 69 | 1020.9 |
| 20260906080021 | 57 | 288 | 2.6 | 3.5 | 0.00 | 0.00 | 0.00 | 70 | 1021.0 |
| 20260906074514 | 57 | 314 | 0.9 | 1.7 | 0.00 | 0.00 | 0.00 | 69 | 1021.3 |
| 20260906073005 | 57 | 292 | 1.7 | 5.2 | 0.00 | 0.00 | 0.00 | 68 | 1021.3 |
| 20260906071508 | 56 | 275 | 2.6 | 4.3 | 0.00 | 0.00 | 0.00 | 69 | 1021.1 |
| 20260906070012 | 56 | 269 | 2.6 | 4.3 | 0.00 | 0.00 | 0.00 | 67 | 1021.1 |
| 20260906064503 | 55 | 243 | 2.6 | 3.5 | 0.00 | 0.00 | 0.00 | 65 | 1021.3 |
| 20260906063003 | 56 | 270 | 2.6 | 3.5 | 0.00 | 0.00 | 0.00 | 64 | 1021.5 |
| 20260906061509 | 57 | 317 | 1.7 | 4.3 | 0.00 | 0.00 | 0.00 | 62 | 1021.6 |
| 20260906060015 | 57 | 277 | 2.6 | 4.3 | 0.00 | 0.00 | 0.00 | 61 | 1021.5 |
| 20260906054514 | 57 | 277 | 2.6 | 3.5 | 0.00 | 0.00 | 0.00 | 58 | 1021.6 |
| 20260906053002 | 59 | 349 | 2.6 | 6.1 | 0.00 | 0.00 | 0.00 | 56 | 1021.5 |
| 20260906051507 | 60 | 293 | 3.5 | 5.2 | 0.00 | 0.00 | 0.00 | 55 | 1021.6 |
| 20260906050012 | 60 | 314 | 1.7 | 4.3 | 0.00 | 0.00 | 0.00 | 54 | 1021.7 |
| 20260906044514 | 60 | 307 | 3.5 | 6.1 | 0.00 | 0.00 | 0.00 | 53 | 1021.7 |
| 20260906043018 | 60 | 315 | 3.5 | 4.3 | 0.00 | 0.00 | 0.00 | 52 | 1021.7 |
| 20260906041505 | 60 | 323 | 2.6 | 4.3 | 0.00 | 0.00 | 0.00 | 51 | 1021.7 |
| 20260906040010 | 59 | 302 | 3.5 | 6.1 | 0.00 | 0.00 | 0.00 | 51 | 1021.7 |
| 20260906034515 | 60 | 294 | 2.6 | 3.5 | 0.00 | 0.00 | 0.00 | 50 | 1021.6 |
| 20260906033019 | 60 | 299 | 1.7 | 3.5 | 0.00 | 0.00 | 0.00 | 50 | 1021.6 |
| 20260906031503 | 61 | 296 | 2.6 | 5.2 | 0.00 | 0.00 | 0.00 | 49 | 1021.5 |
| 20260906030008 | 61 | 320 | 2.6 | 5.2 | 0.00 | 0.00 | 0.00 | 49 | 1021.4 |
| 20260906024512 | 59 | 282 | 2.6 | 4.3 | 0.00 | 0.00 | 0.00 | 52 | 1021.3 |
| 20260906023021 | 60 | 285 | 2.6 | 4.3 | 0.00 | 0.00 | 0.00 | 51 | 1021.1 |
| 20260906021518 | 61 | 294 | 1.7 | 3.5 | 0.00 | 0.00 | 0.00 | 49 | 1021.1 |
| 20260906020005 | 62 | 288 | 2.6 | 5.2 | 0.00 | 0.00 | 0.00 | 47 | 1021.0 |
| 20260906014528 | 62 | 292 | 2.6 | 4.3 | 0.00 | 0.00 | 0.00 | 47 | 1020.8 |
| 20260906013022 | 62 | 293 | 2.6 | 3.5 | 0.00 | 0.00 | 0.00 | 47 | 1020.9 |
| 20260906011520 | 63 | 296 | 2.6 | 3.5 | 0.00 | 0.00 | 0.00 | 47 | 1020.8 |
| 20260906010049 | 64 | 323 | 0.9 | 2.6 | 0.00 | 0.00 | 0.00 | 47 | 1020.8 |
| 20260906004510 | 64 | 311 | 1.7 | 3.5 | 0.00 | 0.00 | 0.00 | 47 | 1020.9 |
| 20260906003012 | 65 | 293 | 3.5 | 4.3 | 0.00 | 0.00 | 0.00 | 47 | 1020.7 |
| 20260906001530 | 66 | 359 | 1.7 | 4.3 | 0.00 | 0.00 | 0.00 | 46 | 1020.7 |
| 20260906000027 | 68 | 354 | 3.5 | 6.1 | 0.00 | 0.00 | 0.00 | 41 | 1020.7 |
| 20260905234505 | 69 | 16 | 3.5 | 5.2 | 0.00 | 0.00 | 0.00 | 39 | 1020.6 |
| 20260905233013 | 69 | 8 | 3.5 | 5.2 | 0.00 | 0.00 | 0.00 | 39 | 1020.5 |
| 20260905231533 | 69 | 46 | 4.3 | 6.1 | 0.00 | 0.00 | 0.00 | 38 | 1020.4 |
| 20260905230024 | 69 | 68 | 3.5 | 7.0 | 0.00 | 0.00 | 0.00 | 37 | 1020.4 |